createdAt,value
2018-09-28T00:00:27.447Z,57.85
2018-09-28T00:00:58.540Z,58.08
2018-09-28T00:01:29.662Z,58.39
2018-09-28T00:02:00.778Z,58.54
2018-09-28T00:02:31.892Z,58.59
2018-09-28T00:03:03.023Z,58.89
2018-09-28T00:03:34.185Z,59.15
2018-09-28T00:04:05.286Z,59.12
2018-09-28T00:04:36.405Z,59.10
2018-09-28T00:05:07.507Z,59.16
2018-09-28T00:05:38.606Z,59.06
2018-09-28T00:06:09.701Z,59.25
2018-09-28T00:06:40.812Z,58.92
2018-09-28T00:07:11.926Z,59.08
2018-09-28T00:07:43.034Z,59.77
2018-09-28T00:08:14.286Z,59.47
2018-09-28T00:08:45.420Z,59.52
2018-09-28T00:09:16.521Z,59.50
2018-09-28T00:09:47.646Z,59.52
2018-09-28T00:10:18.765Z,59.83
2018-09-28T00:10:49.865Z,58.81
2018-09-28T00:11:20.983Z,59.24
2018-09-28T00:11:52.114Z,59.34
2018-09-28T00:12:23.271Z,59.94
2018-09-28T00:12:54.422Z,59.77
2018-09-28T00:13:25.539Z,59.69
2018-09-28T00:13:56.689Z,59.91
2018-09-28T00:14:27.869Z,60.19
2018-09-28T00:14:58.978Z,59.78
2018-09-28T00:15:30.137Z,60.30
2018-09-28T00:16:01.263Z,59.83
2018-09-28T00:16:32.430Z,59.99
2018-09-28T00:17:03.543Z,60.23
2018-09-28T00:17:34.649Z,60.54
2018-09-28T00:18:05.764Z,60.55
2018-09-28T00:18:36.874Z,60.88
2018-09-28T00:19:07.998Z,61.03
2018-09-28T00:19:39.162Z,60.60
2018-09-28T00:20:10.315Z,60.48
2018-09-28T00:20:41.446Z,60.21
2018-09-28T00:21:12.563Z,60.25
2018-09-28T00:21:43.690Z,60.08
2018-09-28T00:22:14.814Z,60.11
2018-09-28T00:22:45.955Z,60.43
2018-09-28T00:23:17.105Z,60.55
2018-09-28T00:23:48.259Z,60.56
2018-09-28T00:24:19.407Z,60.60
2018-09-28T00:24:50.529Z,60.61
2018-09-28T00:25:21.702Z,60.48
2018-09-28T00:25:52.819Z,60.75
2018-09-28T00:26:23.945Z,60.58
2018-09-28T00:26:55.109Z,60.42
2018-09-28T00:27:26.198Z,60.36
2018-09-28T00:27:57.353Z,60.74
2018-09-28T00:28:28.460Z,60.66
2018-09-28T00:28:59.630Z,61.07
2018-09-28T00:29:30.775Z,61.48
2018-09-28T00:30:01.891Z,61.19
2018-09-28T00:30:32.997Z,60.15
2018-09-28T00:31:04.143Z,60.24
2018-09-28T00:31:35.247Z,60.17
2018-09-28T00:32:06.352Z,60.13
2018-09-28T00:32:37.501Z,60.53
2018-09-28T00:33:08.606Z,60.17
2018-09-28T00:33:39.739Z,59.87
2018-09-28T00:34:10.853Z,60.08
2018-09-28T00:34:41.983Z,59.97
2018-09-28T00:35:13.101Z,60.33
2018-09-28T00:35:44.250Z,59.83
2018-09-28T00:36:15.394Z,59.92
2018-09-28T00:36:46.508Z,59.88
2018-09-28T00:37:17.618Z,60.28
2018-09-28T00:37:48.718Z,59.95
2018-09-28T00:38:19.822Z,59.58
2018-09-28T00:38:50.960Z,59.43
2018-09-28T00:39:22.140Z,59.75
2018-09-28T00:39:53.243Z,59.86
2018-09-28T00:40:24.350Z,59.83
2018-09-28T00:40:55.460Z,60.05
2018-09-28T00:41:26.618Z,59.77
2018-09-28T00:41:57.739Z,59.52
2018-09-28T00:42:28.851Z,59.27
2018-09-28T00:42:59.965Z,59.48
2018-09-28T00:43:31.073Z,59.27
2018-09-28T00:44:02.174Z,59.59
2018-09-28T00:44:33.287Z,59.47
2018-09-28T00:45:04.398Z,59.15
2018-09-28T00:45:35.509Z,59.12
2018-09-28T00:46:06.643Z,59.26
2018-09-28T00:46:37.810Z,59.16
2018-09-28T00:47:08.934Z,59.27
2018-09-28T00:47:40.069Z,59.33
2018-09-28T00:48:11.186Z,58.98
2018-09-28T00:48:42.304Z,58.50
2018-09-28T00:49:13.413Z,58.91
2018-09-28T00:49:44.535Z,58.92
2018-09-28T00:50:15.643Z,58.46
2018-09-28T00:50:46.775Z,58.48
2018-09-28T00:51:17.886Z,58.92
2018-09-28T00:51:49.062Z,58.90
2018-09-28T00:52:20.211Z,58.59
2018-09-28T00:52:51.328Z,59.20
2018-09-28T00:53:22.437Z,59.28
2018-09-28T00:53:53.609Z,59.11
2018-09-28T00:54:24.765Z,58.87
2018-09-28T00:54:55.886Z,58.93
2018-09-28T00:55:27.071Z,58.85
2018-09-28T00:55:58.185Z,59.00
2018-09-28T00:56:29.323Z,58.83
2018-09-28T00:57:00.485Z,58.97
2018-09-28T00:57:31.667Z,58.87
2018-09-28T00:58:02.817Z,58.73
2018-09-28T00:58:33.973Z,59.11
2018-09-28T00:59:05.102Z,58.78
2018-09-28T00:59:36.197Z,58.99
2018-09-28T01:00:07.310Z,58.82
2018-09-28T01:00:38.455Z,58.77
2018-09-28T01:01:09.572Z,59.27
2018-09-28T01:01:40.714Z,59.03
2018-09-28T01:02:11.875Z,58.80
2018-09-28T01:02:42.985Z,59.12
2018-09-28T01:03:14.116Z,58.95
2018-09-28T01:03:45.257Z,59.47
2018-09-28T01:04:16.423Z,59.20
2018-09-28T01:04:47.562Z,59.29
2018-09-28T01:05:18.684Z,59.33
2018-09-28T01:05:49.793Z,59.28
2018-09-28T01:06:20.956Z,59.17
2018-09-28T01:06:52.061Z,59.28
2018-09-28T01:07:23.209Z,59.13
2018-09-28T01:07:54.316Z,59.47
2018-09-28T01:08:25.481Z,59.26
2018-09-28T01:08:56.627Z,59.31
2018-09-28T01:09:27.774Z,58.80
2018-09-28T01:09:58.890Z,58.90
2018-09-28T01:10:29.997Z,58.43
2018-09-28T01:11:01.110Z,58.68
2018-09-28T01:11:32.221Z,58.81
2018-09-28T01:12:03.327Z,58.46
2018-09-28T01:12:34.470Z,58.69
2018-09-28T01:13:05.582Z,58.53
2018-09-28T01:13:36.723Z,58.76
2018-09-28T01:14:07.870Z,58.68
2018-09-28T01:14:39.002Z,58.44
2018-09-28T01:15:10.109Z,58.51
2018-09-28T01:15:41.231Z,58.03
2018-09-28T01:16:12.357Z,58.17
2018-09-28T01:16:43.484Z,57.93
2018-09-28T01:17:14.591Z,58.11
2018-09-28T01:17:45.707Z,58.05
2018-09-28T01:18:16.812Z,58.18
2018-09-28T01:18:47.917Z,58.48
2018-09-28T01:19:19.059Z,57.93
2018-09-28T01:19:50.190Z,57.98
2018-09-28T01:20:21.305Z,57.93
2018-09-28T01:20:52.414Z,57.85
2018-09-28T01:21:23.526Z,57.88
2018-09-28T01:21:54.638Z,57.99
2018-09-28T01:22:25.741Z,57.77
2018-09-28T01:22:56.887Z,58.06
2018-09-28T01:23:27.987Z,58.26
2018-09-28T01:23:59.091Z,57.72
2018-09-28T01:24:30.242Z,57.84
2018-09-28T01:25:01.392Z,57.62
2018-09-28T01:25:32.527Z,58.06
2018-09-28T01:26:03.638Z,57.51
2018-09-28T01:26:34.780Z,57.60
2018-09-28T01:27:05.892Z,57.78
2018-09-28T01:27:36.992Z,58.03
2018-09-28T01:28:08.118Z,58.04
2018-09-28T01:28:39.232Z,57.85
2018-09-28T01:29:10.356Z,57.78
2018-09-28T01:29:41.475Z,57.73
2018-09-28T01:30:12.619Z,57.98
2018-09-28T01:30:43.773Z,57.79
2018-09-28T01:31:14.888Z,57.99
2018-09-28T01:31:46.012Z,57.78
2018-09-28T01:32:17.126Z,57.72
2018-09-28T01:32:48.239Z,57.47
2018-09-28T01:33:19.383Z,57.35
2018-09-28T01:33:50.489Z,57.11
2018-09-28T01:34:21.590Z,57.18
2018-09-28T01:34:52.694Z,57.33
2018-09-28T01:35:23.817Z,56.97
2018-09-28T01:35:54.962Z,57.33
2018-09-28T01:36:26.107Z,57.41
2018-09-28T01:36:57.214Z,57.13
2018-09-28T01:37:28.350Z,56.93
2018-09-28T01:37:59.481Z,57.25
2018-09-28T01:38:30.671Z,57.21
2018-09-28T01:39:01.779Z,57.28
2018-09-28T01:39:32.925Z,56.61
2018-09-28T01:40:04.031Z,56.56
2018-09-28T01:40:35.142Z,56.72
2018-09-28T01:41:06.235Z,56.57
2018-09-28T01:41:37.349Z,56.83
2018-09-28T01:42:08.458Z,56.53
2018-09-28T01:42:39.609Z,56.20
2018-09-28T01:43:10.811Z,56.50
2018-09-28T01:43:41.954Z,56.00
2018-09-28T01:44:13.079Z,55.97
2018-09-28T01:44:44.210Z,55.50
2018-09-28T01:45:15.309Z,55.68
2018-09-28T01:45:46.438Z,55.41
2018-09-28T01:46:17.530Z,55.08
2018-09-28T01:46:48.634Z,55.46
2018-09-28T01:47:19.741Z,55.36
2018-09-28T01:47:50.861Z,55.36
2018-09-28T01:48:22.027Z,55.53
2018-09-28T01:48:53.149Z,55.38
2018-09-28T01:49:24.251Z,55.36
2018-09-28T01:49:55.361Z,55.02
2018-09-28T01:50:26.465Z,55.43
2018-09-28T01:50:57.569Z,55.53
2018-09-28T01:51:28.701Z,55.42
2018-09-28T01:51:59.805Z,55.78
2018-09-28T01:52:30.908Z,55.57
2018-09-28T01:53:02.049Z,55.31
2018-09-28T01:53:33.145Z,55.39
2018-09-28T01:54:04.250Z,55.45
2018-09-28T01:54:35.348Z,55.39
2018-09-28T01:55:06.449Z,55.10
2018-09-28T01:55:37.549Z,55.25
2018-09-28T01:56:08.685Z,55.45
2018-09-28T01:56:39.818Z,55.02
2018-09-28T01:57:10.917Z,55.25
2018-09-28T01:57:42.057Z,55.51
2018-09-28T01:58:13.212Z,55.33
2018-09-28T01:58:44.343Z,55.33
2018-09-28T01:59:15.457Z,55.54
2018-09-28T01:59:46.551Z,55.08
2018-09-28T02:00:17.645Z,54.86
2018-09-28T02:00:48.749Z,54.92
2018-09-28T02:01:19.865Z,55.42
2018-09-28T02:01:51.027Z,55.68
2018-09-28T02:02:22.193Z,55.50
2018-09-28T02:02:53.346Z,55.57
2018-09-28T02:03:24.832Z,55.66
2018-09-28T02:03:55.974Z,55.13
2018-09-28T02:04:27.275Z,55.23
2018-09-28T02:04:58.468Z,55.62
2018-09-28T02:05:29.607Z,55.52
2018-09-28T02:06:01.068Z,55.86
2018-09-28T02:06:32.193Z,55.66
2018-09-28T02:07:03.354Z,55.29
2018-09-28T02:07:34.460Z,55.74
2018-09-28T02:08:05.906Z,55.76
2018-09-28T02:08:37.060Z,55.83
2018-09-28T02:09:09.148Z,56.09
2018-09-28T02:09:41.434Z,56.26
2018-09-28T02:10:12.587Z,56.13
2018-09-28T02:10:44.365Z,56.24
2018-09-28T02:11:15.811Z,56.50
2018-09-28T02:11:46.960Z,56.68
2018-09-28T02:12:18.696Z,57.11
2018-09-28T02:12:49.925Z,57.37
2018-09-28T02:13:21.410Z,57.61
2018-09-28T02:13:53.582Z,57.26
2018-09-28T02:14:24.706Z,57.26
2018-09-28T02:14:55.794Z,57.57
2018-09-28T02:15:26.911Z,57.68
2018-09-28T02:15:58.314Z,57.15
2018-09-28T02:16:29.422Z,57.54
2018-09-28T02:17:00.526Z,57.37
2018-09-28T02:17:31.671Z,57.92
2018-09-28T02:18:02.766Z,58.02
2018-09-28T02:18:33.865Z,58.11
2018-09-28T02:19:05.007Z,57.86
2018-09-28T02:19:36.111Z,57.12
2018-09-28T02:20:07.210Z,57.14
2018-09-28T02:20:38.330Z,57.42
2018-09-28T02:21:09.489Z,57.46
2018-09-28T02:21:40.583Z,57.88
2018-09-28T02:22:11.693Z,57.62
2018-09-28T02:22:42.803Z,57.64
2018-09-28T02:23:13.905Z,57.85
2018-09-28T02:23:45.017Z,58.02
2018-09-28T02:24:16.109Z,58.01
2018-09-28T02:24:47.218Z,58.08
2018-09-28T02:25:18.318Z,58.22
2018-09-28T02:25:49.489Z,58.12
2018-09-28T02:26:20.651Z,58.19
2018-09-28T02:26:51.749Z,58.13
2018-09-28T02:27:22.873Z,58.17
2018-09-28T02:27:53.994Z,58.58
2018-09-28T02:28:25.103Z,59.17
2018-09-28T02:28:56.239Z,59.11
2018-09-28T02:29:27.352Z,59.21
2018-09-28T02:29:58.471Z,59.13
2018-09-28T02:30:29.572Z,59.31
2018-09-28T02:31:00.733Z,59.41
2018-09-28T02:31:31.835Z,59.40
2018-09-28T02:32:02.977Z,59.43
2018-09-28T02:32:34.099Z,59.28
2018-09-28T02:33:05.247Z,58.88
2018-09-28T02:33:36.366Z,58.94
2018-09-28T02:34:07.475Z,58.95
2018-09-28T02:34:38.588Z,58.05
2018-09-28T02:35:09.699Z,58.09
2018-09-28T02:35:40.801Z,58.35
2018-09-28T02:36:11.953Z,58.20
2018-09-28T02:36:43.072Z,58.11
2018-09-28T02:37:14.171Z,58.04
2018-09-28T02:37:45.285Z,58.24
2018-09-28T02:38:16.385Z,58.53
2018-09-28T02:38:47.537Z,58.20
2018-09-28T02:39:18.646Z,58.48
2018-09-28T02:39:49.806Z,58.31
2018-09-28T02:40:20.921Z,58.38
2018-09-28T02:40:52.077Z,58.55
2018-09-28T02:41:23.247Z,58.76
2018-09-28T02:41:54.406Z,58.84
2018-09-28T02:42:25.501Z,58.85
2018-09-28T02:42:56.637Z,58.91
2018-09-28T02:43:27.761Z,58.41
2018-09-28T02:43:58.877Z,59.02
2018-09-28T02:44:30.024Z,58.72
2018-09-28T02:45:01.123Z,58.65
2018-09-28T02:45:32.241Z,59.37
2018-09-28T02:46:03.382Z,59.30
2018-09-28T02:46:34.626Z,59.03
2018-09-28T02:47:05.756Z,59.14
2018-09-28T02:47:36.883Z,58.83
2018-09-28T02:48:08.003Z,58.85
2018-09-28T02:48:39.112Z,59.10
2018-09-28T02:49:10.307Z,59.43
2018-09-28T02:49:41.411Z,59.04
2018-09-28T02:50:12.521Z,58.40
2018-09-28T02:50:43.673Z,57.81
2018-09-28T02:51:14.775Z,58.38
2018-09-28T02:51:45.925Z,57.52
2018-09-28T02:52:17.026Z,58.00
2018-09-28T02:52:48.162Z,57.75
2018-09-28T02:53:19.270Z,57.76
2018-09-28T02:53:50.402Z,57.61
2018-09-28T02:54:21.506Z,58.13
2018-09-28T02:54:52.629Z,57.55
2018-09-28T02:55:23.756Z,57.07
2018-09-28T02:55:54.860Z,58.04
2018-09-28T02:56:25.974Z,57.39
2018-09-28T02:56:57.139Z,57.49
2018-09-28T02:57:28.269Z,57.31
2018-09-28T02:57:59.376Z,57.16
2018-09-28T02:58:30.622Z,57.34
2018-09-28T02:59:01.761Z,57.13
2018-09-28T02:59:32.887Z,57.28
2018-09-28T03:00:03.999Z,57.68
2018-09-28T03:00:35.101Z,56.56
2018-09-28T03:01:06.193Z,57.31
2018-09-28T03:01:37.352Z,57.68
2018-09-28T03:02:08.489Z,57.87
2018-09-28T03:02:39.617Z,57.89
2018-09-28T03:03:10.748Z,57.99
2018-09-28T03:03:41.890Z,57.99
2018-09-28T03:04:12.991Z,57.79
2018-09-28T03:04:44.111Z,58.06
2018-09-28T03:05:15.234Z,57.70
2018-09-28T03:05:46.340Z,56.99
2018-09-28T03:06:17.488Z,57.25
2018-09-28T03:06:48.622Z,57.35
2018-09-28T03:07:19.728Z,57.74
2018-09-28T03:07:50.822Z,57.96
2018-09-28T03:08:21.928Z,57.49
2018-09-28T03:08:53.058Z,57.45
2018-09-28T03:09:24.145Z,57.74
2018-09-28T03:09:55.265Z,56.96
2018-09-28T03:10:26.360Z,57.04
2018-09-28T03:10:57.460Z,57.15
2018-09-28T03:11:28.570Z,57.47
2018-09-28T03:11:59.684Z,57.37
2018-09-28T03:12:30.820Z,56.88
2018-09-28T03:13:01.964Z,57.07
2018-09-28T03:13:33.093Z,56.18
2018-09-28T03:14:04.256Z,56.86
2018-09-28T03:14:35.395Z,56.76
2018-09-28T03:15:06.512Z,56.17
2018-09-28T03:15:37.620Z,56.14
2018-09-28T03:16:08.730Z,56.05
2018-09-28T03:16:39.822Z,56.35
2018-09-28T03:17:10.925Z,56.83
2018-09-28T03:17:42.030Z,56.97
2018-09-28T03:18:13.190Z,57.22
2018-09-28T03:18:44.308Z,57.44
2018-09-28T03:19:15.470Z,57.82
2018-09-28T03:19:46.580Z,57.76
2018-09-28T03:20:17.705Z,57.74
2018-09-28T03:20:48.810Z,57.99
2018-09-28T03:21:19.923Z,58.23
2018-09-28T03:21:51.045Z,58.39
2018-09-28T03:22:22.184Z,58.05
2018-09-28T03:22:53.324Z,57.98
2018-09-28T03:23:24.440Z,58.24
2018-09-28T03:23:55.606Z,58.09
2018-09-28T03:24:26.707Z,58.07
2018-09-28T03:24:57.838Z,58.12
2018-09-28T03:25:28.995Z,58.11
2018-09-28T03:26:00.141Z,58.21
2018-09-28T03:26:31.248Z,58.50
2018-09-28T03:27:02.392Z,58.77
2018-09-28T03:27:33.525Z,58.61
2018-09-28T03:28:04.627Z,58.90
2018-09-28T03:28:35.739Z,58.88
2018-09-28T03:29:06.901Z,59.21
2018-09-28T03:29:38.024Z,59.03
2018-09-28T03:30:09.157Z,59.12
2018-09-28T03:30:40.294Z,59.47
2018-09-28T03:31:11.460Z,59.67
2018-09-28T03:31:42.610Z,59.61
2018-09-28T03:32:13.768Z,59.19
2018-09-28T03:32:44.921Z,59.32
2018-09-28T03:33:16.065Z,59.79
2018-09-28T03:33:47.174Z,59.74
2018-09-28T03:34:18.334Z,59.61
2018-09-28T03:34:49.440Z,60.06
2018-09-28T03:35:20.541Z,59.89
2018-09-28T03:35:51.697Z,59.96
2018-09-28T03:36:22.793Z,60.19
2018-09-28T03:36:53.908Z,60.41
2018-09-28T03:37:25.005Z,60.35
2018-09-28T03:37:56.109Z,60.38
2018-09-28T03:38:27.235Z,59.98
2018-09-28T03:38:58.436Z,60.12
2018-09-28T03:39:29.546Z,59.94
2018-09-28T03:40:00.646Z,60.44
2018-09-28T03:40:31.804Z,60.22
2018-09-28T03:41:02.885Z,60.31
2018-09-28T03:41:33.985Z,60.43
2018-09-28T03:42:05.105Z,60.54
2018-09-28T03:42:36.207Z,60.34
2018-09-28T03:43:07.306Z,60.46
2018-09-28T03:43:38.404Z,60.12
2018-09-28T03:44:09.590Z,60.53
2018-09-28T03:44:40.691Z,60.34
2018-09-28T03:45:11.792Z,60.30
2018-09-28T03:45:42.896Z,60.50
2018-09-28T03:46:14.049Z,60.55
2018-09-28T03:46:45.191Z,60.56
2018-09-28T03:47:16.341Z,60.84
2018-09-28T03:47:47.467Z,61.07
2018-09-28T03:48:18.580Z,61.24
2018-09-28T03:48:49.704Z,61.23
2018-09-28T03:49:20.841Z,61.78
2018-09-28T03:49:51.973Z,62.22
2018-09-28T03:50:23.083Z,62.36
2018-09-28T03:50:54.202Z,62.37
2018-09-28T03:51:25.422Z,62.59
2018-09-28T03:51:56.491Z,62.83
2018-09-28T03:52:27.631Z,62.51
2018-09-28T03:52:58.781Z,62.88
2018-09-28T03:53:29.893Z,62.86
2018-09-28T03:54:01.027Z,62.72
2018-09-28T03:54:32.126Z,62.81
2018-09-28T03:55:03.242Z,62.92
2018-09-28T03:55:34.362Z,62.96
2018-09-28T03:56:05.521Z,62.49
2018-09-28T03:56:36.683Z,62.73
2018-09-28T03:57:07.794Z,61.86
2018-09-28T03:57:38.887Z,62.01
2018-09-28T03:58:10.005Z,61.37
2018-09-28T03:58:41.114Z,60.98
2018-09-28T03:59:12.214Z,60.48
2018-09-28T03:59:43.309Z,60.44
2018-09-28T04:00:14.435Z,60.37
2018-09-28T04:00:45.599Z,59.02
2018-09-28T04:01:16.695Z,59.24
2018-09-28T04:01:47.825Z,59.42
2018-09-28T04:02:18.935Z,59.42
2018-09-28T04:02:50.060Z,58.92
2018-09-28T04:03:21.191Z,59.32
2018-09-28T04:03:52.305Z,58.92
2018-09-28T04:04:23.435Z,59.15
2018-09-28T04:04:54.541Z,59.19
2018-09-28T04:05:25.736Z,58.71
2018-09-28T04:05:56.853Z,58.75
2018-09-28T04:06:28.000Z,59.01
2018-09-28T04:06:59.110Z,58.49
2018-09-28T04:07:30.228Z,59.10
2018-09-28T04:08:01.332Z,58.38
2018-09-28T04:08:32.461Z,58.79
2018-09-28T04:09:03.576Z,58.69
2018-09-28T04:09:34.714Z,58.80
2018-09-28T04:10:05.864Z,58.97
2018-09-28T04:10:37.007Z,58.95
2018-09-28T04:11:08.135Z,59.05
2018-09-28T04:11:39.254Z,59.43
2018-09-28T04:12:10.400Z,59.27
2018-09-28T04:12:41.513Z,60.02
2018-09-28T04:13:12.645Z,60.25
2018-09-28T04:13:43.805Z,60.39
2018-09-28T04:14:14.934Z,60.22
2018-09-28T04:14:46.049Z,60.49
2018-09-28T04:15:17.278Z,60.26
2018-09-28T04:15:48.421Z,60.27
2018-09-28T04:16:19.536Z,60.38
2018-09-28T04:16:50.634Z,60.11
2018-09-28T04:17:21.748Z,59.92
2018-09-28T04:17:52.877Z,59.34
2018-09-28T04:18:24.011Z,59.48
2018-09-28T04:18:55.123Z,59.35
2018-09-28T04:19:26.256Z,58.80
2018-09-28T04:19:57.396Z,58.98
2018-09-28T04:20:28.532Z,59.38
2018-09-28T04:20:59.716Z,59.43
2018-09-28T04:21:30.814Z,58.78
2018-09-28T04:22:02.033Z,59.04
2018-09-28T04:22:33.115Z,58.76
2018-09-28T04:23:04.233Z,58.76
2018-09-28T04:23:35.346Z,59.14
2018-09-28T04:24:06.501Z,59.04
2018-09-28T04:24:37.620Z,58.81
2018-09-28T04:25:08.735Z,59.31
2018-09-28T04:25:39.856Z,59.43
2018-09-28T04:26:11.592Z,59.42
2018-09-28T04:26:42.706Z,59.07
2018-09-28T04:27:13.821Z,59.04
2018-09-28T04:27:44.937Z,59.07
2018-09-28T04:28:16.097Z,58.48
2018-09-28T04:28:47.274Z,58.24
2018-09-28T04:29:18.396Z,57.51
2018-09-28T04:29:49.521Z,56.86
2018-09-28T04:30:20.625Z,56.11
2018-09-28T04:30:51.746Z,55.34
2018-09-28T04:31:22.877Z,55.09
2018-09-28T04:31:53.975Z,55.05
2018-09-28T04:32:25.081Z,54.65
2018-09-28T04:32:56.260Z,54.21
2018-09-28T04:33:27.366Z,54.07
2018-09-28T04:33:58.522Z,53.52
2018-09-28T04:34:29.682Z,53.57
2018-09-28T04:35:00.812Z,53.36
2018-09-28T04:35:31.935Z,53.12
2018-09-28T04:36:03.117Z,52.81
2018-09-28T04:36:34.220Z,52.40
2018-09-28T04:37:05.346Z,51.96
2018-09-28T04:37:36.493Z,51.59
2018-09-28T04:38:07.597Z,51.01
2018-09-28T04:38:38.713Z,51.26
2018-09-28T04:39:09.819Z,51.35
2018-09-28T04:39:41.037Z,51.41
2018-09-28T04:40:12.136Z,51.71
2018-09-28T04:40:43.257Z,51.98
2018-09-28T04:41:14.367Z,52.15
2018-09-28T04:41:45.465Z,51.88
2018-09-28T04:42:16.553Z,52.17
2018-09-28T04:42:47.713Z,52.26
2018-09-28T04:43:18.829Z,52.68
2018-09-28T04:43:49.927Z,52.69
2018-09-28T04:44:21.026Z,52.57
2018-09-28T04:44:52.169Z,52.64
2018-09-28T04:45:23.284Z,52.82
2018-09-28T04:45:54.431Z,53.57
2018-09-28T04:46:25.541Z,53.01
2018-09-28T04:46:56.673Z,53.07
2018-09-28T04:47:27.778Z,53.14
2018-09-28T04:47:58.933Z,53.46
2018-09-28T04:48:30.072Z,53.79
2018-09-28T04:49:01.195Z,53.92
2018-09-28T04:49:32.296Z,53.87
2018-09-28T04:50:03.448Z,53.99
2018-09-28T04:50:34.578Z,53.81
2018-09-28T04:51:05.730Z,53.94
2018-09-28T04:51:36.840Z,53.98
2018-09-28T04:52:07.971Z,53.94
2018-09-28T04:52:39.080Z,53.49
2018-09-28T04:53:10.228Z,53.58
2018-09-28T04:53:41.361Z,53.88
2018-09-28T04:54:12.457Z,53.84
2018-09-28T04:54:43.550Z,53.54
2018-09-28T04:55:14.711Z,53.31
2018-09-28T04:55:45.864Z,53.25
2018-09-28T04:56:16.961Z,52.92
2018-09-28T04:56:48.075Z,52.77
2018-09-28T04:57:19.190Z,52.93
2018-09-28T04:57:50.349Z,52.46
2018-09-28T04:58:21.450Z,51.82
2018-09-28T04:58:52.587Z,51.51
2018-09-28T04:59:23.719Z,50.89
2018-09-28T04:59:54.845Z,50.64
2018-09-28T05:00:25.962Z,50.03
2018-09-28T05:00:57.098Z,49.70
2018-09-28T05:01:28.192Z,49.44
2018-09-28T05:01:59.311Z,49.42
2018-09-28T05:02:30.406Z,49.37
2018-09-28T05:03:01.521Z,49.14
2018-09-28T05:03:32.854Z,49.66
2018-09-28T05:04:04.006Z,49.51
2018-09-28T05:04:35.151Z,49.63
2018-09-28T05:05:06.253Z,49.63
2018-09-28T05:05:37.354Z,49.68
2018-09-28T05:06:08.450Z,50.11
2018-09-28T05:06:39.580Z,50.18
2018-09-28T05:07:10.727Z,50.08
2018-09-28T05:07:41.828Z,50.29
2018-09-28T05:08:12.938Z,50.58
2018-09-28T05:08:44.034Z,50.46
2018-09-28T05:09:15.139Z,50.27
2018-09-28T05:09:46.247Z,50.25
2018-09-28T05:10:17.362Z,50.45
2018-09-28T05:10:48.491Z,50.47
2018-09-28T05:11:19.605Z,50.05
2018-09-28T05:11:50.710Z,49.92
2018-09-28T05:12:21.873Z,50.21
2018-09-28T05:12:52.997Z,49.73
2018-09-28T05:13:24.137Z,49.45
2018-09-28T05:13:55.241Z,49.65
2018-09-28T05:14:26.347Z,49.85
2018-09-28T05:14:57.464Z,49.46
2018-09-28T05:15:28.590Z,49.44
2018-09-28T05:15:59.695Z,49.49
2018-09-28T05:16:30.790Z,49.07
2018-09-28T05:17:01.949Z,48.57
2018-09-28T05:17:33.106Z,48.52
2018-09-28T05:18:04.203Z,48.62
2018-09-28T05:18:35.305Z,48.28
2018-09-28T05:19:06.402Z,48.69
2018-09-28T05:19:37.624Z,48.43
2018-09-28T05:20:08.676Z,48.41
2018-09-28T05:20:39.766Z,48.39
2018-09-28T05:21:10.863Z,48.59
2018-09-28T05:21:42.034Z,48.27
2018-09-28T05:22:13.143Z,48.08
2018-09-28T05:22:44.245Z,48.01
2018-09-28T05:23:15.372Z,48.35
2018-09-28T05:23:46.462Z,48.32
2018-09-28T05:24:17.577Z,48.56
2018-09-28T05:24:48.685Z,48.27
2018-09-28T05:25:19.859Z,48.12
2018-09-28T05:25:50.979Z,47.54
2018-09-28T05:26:22.099Z,47.60
2018-09-28T05:26:53.241Z,47.69
2018-09-28T05:27:24.350Z,48.30
2018-09-28T05:27:55.452Z,48.41
2018-09-28T05:28:26.581Z,48.39
2018-09-28T05:28:57.703Z,48.55
2018-09-28T05:29:28.848Z,48.29
2018-09-28T05:29:59.978Z,48.71
2018-09-28T05:30:31.095Z,48.65
2018-09-28T05:31:02.300Z,48.66
2018-09-28T05:31:33.378Z,48.31
2018-09-28T05:32:04.579Z,47.97
2018-09-28T05:32:35.794Z,48.26
2018-09-28T05:33:06.963Z,48.09
2018-09-28T05:33:37.958Z,48.03
2018-09-28T05:34:09.049Z,47.65
2018-09-28T05:34:40.146Z,47.68
2018-09-28T05:35:11.258Z,47.79
2018-09-28T05:35:42.393Z,47.99
2018-09-28T05:36:13.542Z,47.60
2018-09-28T05:36:44.665Z,47.63
2018-09-28T05:37:15.887Z,47.05
2018-09-28T05:37:46.912Z,46.89
2018-09-28T05:38:18.070Z,47.26
2018-09-28T05:38:49.180Z,47.59
2018-09-28T05:39:20.297Z,46.98
2018-09-28T05:39:51.432Z,47.04
2018-09-28T05:40:22.550Z,47.43
2018-09-28T05:40:53.699Z,47.95
2018-09-28T05:41:24.830Z,48.11
2018-09-28T05:41:55.981Z,48.58
2018-09-28T05:42:27.081Z,48.89
2018-09-28T05:42:58.218Z,47.45
2018-09-28T05:43:29.337Z,47.36
2018-09-28T05:44:00.469Z,47.41
2018-09-28T05:44:31.592Z,47.18
2018-09-28T05:45:02.744Z,47.92
2018-09-28T05:45:33.870Z,47.58
2018-09-28T05:46:04.986Z,47.67
2018-09-28T05:46:36.168Z,47.34
2018-09-28T05:47:07.257Z,47.76
2018-09-28T05:47:38.422Z,47.48
2018-09-28T05:48:09.522Z,48.42
2018-09-28T05:48:40.636Z,48.26
2018-09-28T05:49:11.754Z,47.41
2018-09-28T05:49:42.869Z,45.79
2018-09-28T05:50:13.965Z,46.05
2018-09-28T05:50:45.084Z,45.85
2018-09-28T05:51:16.231Z,45.83
2018-09-28T05:51:47.351Z,45.37
2018-09-28T05:52:18.478Z,44.94
2018-09-28T05:52:49.668Z,45.19
2018-09-28T05:53:20.811Z,45.51
2018-09-28T05:53:51.935Z,45.71
2018-09-28T05:54:23.055Z,45.46
2018-09-28T05:54:54.177Z,45.64
2018-09-28T05:55:25.268Z,45.85
2018-09-28T05:55:56.393Z,45.84
2018-09-28T05:56:27.567Z,45.81
2018-09-28T05:56:58.669Z,45.76
2018-09-28T05:57:29.889Z,45.09
2018-09-28T05:58:00.983Z,45.01
2018-09-28T05:58:32.145Z,45.37
2018-09-28T05:59:03.221Z,45.26
2018-09-28T05:59:34.317Z,44.99
2018-09-28T06:00:05.451Z,44.89
2018-09-28T06:00:36.677Z,44.89
2018-09-28T06:01:07.794Z,44.42
2018-09-28T06:01:40.130Z,44.07
2018-09-28T06:02:11.301Z,44.54
2018-09-28T06:02:42.425Z,43.98
2018-09-28T06:03:13.591Z,44.07
2018-09-28T06:03:44.721Z,43.90
2018-09-28T06:04:15.845Z,43.50
2018-09-28T06:04:46.943Z,42.99
2018-09-28T06:05:18.151Z,43.55
2018-09-28T06:05:49.287Z,43.53
2018-09-28T06:06:20.445Z,43.25
2018-09-28T06:06:51.568Z,43.15
2018-09-28T06:07:22.674Z,43.64
2018-09-28T06:07:53.790Z,43.56
2018-09-28T06:08:24.998Z,43.55
2018-09-28T06:08:56.182Z,43.24
2018-09-28T06:09:27.349Z,42.89
2018-09-28T06:09:58.562Z,43.22
2018-09-28T06:10:30.575Z,43.09
2018-09-28T06:11:01.811Z,43.04
2018-09-28T06:11:33.094Z,42.71
2018-09-28T06:12:04.299Z,42.96
2018-09-28T06:12:35.480Z,42.67
2018-09-28T06:13:06.612Z,42.27
2018-09-28T06:13:37.767Z,42.29
2018-09-28T06:14:08.914Z,42.97
2018-09-28T06:14:40.031Z,42.41
2018-09-28T06:15:11.156Z,42.54
2018-09-28T06:15:42.291Z,42.89
2018-09-28T06:16:13.433Z,42.53
2018-09-28T06:16:44.605Z,42.51
2018-09-28T06:17:15.782Z,42.68
2018-09-28T06:17:46.958Z,44.21
2018-09-28T06:18:18.147Z,42.83
2018-09-28T06:18:49.346Z,42.98
2018-09-28T06:19:20.423Z,43.14
2018-09-28T06:19:51.569Z,42.95
2018-09-28T06:20:22.822Z,42.84
2018-09-28T06:20:53.972Z,43.25
2018-09-28T06:21:25.104Z,43.10
2018-09-28T06:21:56.252Z,43.05
2018-09-28T06:22:27.418Z,42.95
2018-09-28T06:22:58.788Z,42.94
2018-09-28T06:23:29.996Z,42.92
2018-09-28T06:24:01.145Z,43.21
2018-09-28T06:24:32.290Z,43.14
2018-09-28T06:25:03.458Z,43.37
2018-09-28T06:25:34.632Z,43.67
2018-09-28T06:26:05.913Z,43.30
2018-09-28T06:26:37.049Z,43.27
2018-09-28T06:27:08.196Z,42.87
2018-09-28T06:27:39.391Z,42.92
2018-09-28T06:28:10.507Z,42.70
2018-09-28T06:28:41.663Z,42.87
2018-09-28T06:29:12.783Z,43.47
2018-09-28T06:29:44.146Z,43.29
2018-09-28T06:30:15.282Z,42.07
2018-09-28T06:30:47.584Z,41.56
2018-09-28T06:31:18.740Z,42.01
2018-09-28T06:31:49.885Z,41.94
2018-09-28T06:32:21.042Z,41.78
2018-09-28T06:32:52.164Z,41.61
2018-09-28T06:33:23.290Z,42.16
2018-09-28T06:33:54.402Z,42.25
2018-09-28T06:34:25.583Z,41.67
2018-09-28T06:34:56.720Z,41.59
2018-09-28T06:35:27.962Z,41.50
2018-09-28T06:35:59.158Z,41.48
2018-09-28T06:36:30.282Z,41.11
2018-09-28T06:37:01.418Z,41.20
2018-09-28T06:37:32.751Z,42.38
2018-09-28T06:38:03.971Z,41.75
2018-09-28T06:38:35.216Z,40.71
2018-09-28T06:39:06.370Z,40.31
2018-09-28T06:39:37.552Z,40.08
2018-09-28T06:40:08.787Z,40.56
2018-09-28T06:40:39.963Z,40.12
2018-09-28T06:41:11.083Z,40.48